createdAt,value
2023-02-06T00:01:46.351Z,44.93
2023-02-06T00:04:15.609Z,41.40
2023-02-06T00:06:44.807Z,40.47
2023-02-06T00:09:13.543Z,40.13
2023-02-06T00:11:41.973Z,42.67
2023-02-06T00:14:10.587Z,36.30
2023-02-06T00:16:39.162Z,41.90
2023-02-06T00:19:10.973Z,40.33
2023-02-06T00:21:39.558Z,35.97
2023-02-06T00:24:08.457Z,38.90
2023-02-06T00:26:37.092Z,42.23
2023-02-06T00:29:05.541Z,41.77
2023-02-06T00:31:34.011Z,45.03
2023-02-06T00:34:03.904Z,41.13
2023-02-06T00:36:34.331Z,45.00
2023-02-06T00:39:02.838Z,41.03
2023-02-06T00:41:31.290Z,40.23
2023-02-06T00:43:59.625Z,43.40
2023-02-06T00:46:28.110Z,46.57
2023-02-06T00:48:56.476Z,42.93
2023-02-06T00:51:24.900Z,43.93
2023-02-06T00:53:54.583Z,43.50
2023-02-06T00:56:23.042Z,43.97
2023-02-06T00:58:51.511Z,44.17
2023-02-06T01:01:19.899Z,46.23
2023-02-06T01:03:48.576Z,41.30
2023-02-06T01:06:17.015Z,41.57
2023-02-06T01:08:45.437Z,40.73
2023-02-06T01:11:18.997Z,44.70
2023-02-06T01:13:48.306Z,40.00
2023-02-06T01:16:19.441Z,42.87
2023-02-06T01:18:48.553Z,40.97
2023-02-06T01:21:20.539Z,46.37
2023-02-06T01:23:50.529Z,42.23
2023-02-06T01:26:24.459Z,44.03
2023-02-06T01:28:53.068Z,49.10
2023-02-06T01:31:24.127Z,43.53
2023-02-06T01:33:53.636Z,45.10
2023-02-06T01:36:23.260Z,44.50
2023-02-06T01:38:52.329Z,45.87
2023-02-06T01:41:24.460Z,44.67
2023-02-06T01:44:11.704Z,41.33
2023-02-06T01:46:42.132Z,44.83
2023-02-06T01:49:18.107Z,42.43
2023-02-06T01:51:47.431Z,42.77
2023-02-06T01:54:16.795Z,44.73
2023-02-06T01:56:52.882Z,46.80
2023-02-06T01:59:22.150Z,45.43
2023-02-06T02:01:50.814Z,44.80
2023-02-06T02:04:22.716Z,42.10
2023-02-06T02:07:04.390Z,47.17
2023-02-06T02:09:34.759Z,48.17
2023-02-06T02:12:04.962Z,56.90
2023-02-06T02:14:33.585Z,53.77
2023-02-06T02:17:20.806Z,52.60
2023-02-06T02:20:36.738Z,48.27
2023-02-06T02:23:21.652Z,45.63
2023-02-06T02:26:38.689Z,48.13
2023-02-06T02:30:00.980Z,49.13
2023-02-06T02:33:03.709Z,52.10
2023-02-06T02:35:50.861Z,48.23
2023-02-06T02:38:35.277Z,50.73
2023-02-06T02:41:11.959Z,55.07
2023-02-06T02:43:45.622Z,49.33
2023-02-06T02:46:27.519Z,51.00
2023-02-06T02:49:01.401Z,47.77
2023-02-06T02:51:31.413Z,51.63
2023-02-06T02:53:59.894Z,50.90
2023-02-06T02:56:31.284Z,49.13
2023-02-06T02:59:05.535Z,48.77
2023-02-06T03:01:39.066Z,49.40
2023-02-06T03:04:14.210Z,50.90
2023-02-06T03:07:05.463Z,58.63
2023-02-06T03:10:00.109Z,49.60
2023-02-06T03:12:39.648Z,53.73
2023-02-06T03:15:21.981Z,48.53
2023-02-06T03:17:57.141Z,49.10
2023-02-06T03:20:26.481Z,52.10
2023-02-06T03:22:58.392Z,52.03
2023-02-06T03:25:35.179Z,54.70
2023-02-06T03:28:06.321Z,52.57
2023-02-06T03:30:35.895Z,55.17
2023-02-06T03:33:09.142Z,48.17
2023-02-06T03:35:40.510Z,53.67
2023-02-06T03:38:10.755Z,49.87
2023-02-06T03:40:43.501Z,53.50
2023-02-06T03:43:18.615Z,51.67
2023-02-06T03:45:52.586Z,52.00
2023-02-06T03:48:27.924Z,57.17
2023-02-06T03:51:00.499Z,52.00
2023-02-06T03:53:31.035Z,55.40
2023-02-06T03:56:07.537Z,57.67
2023-02-06T03:58:36.050Z,50.63
2023-02-06T04:01:05.707Z,54.27
2023-02-06T04:03:34.414Z,52.53
2023-02-06T04:06:02.990Z,54.80
2023-02-06T04:08:32.674Z,60.93
2023-02-06T04:11:01.002Z,60.30
2023-02-06T04:13:29.436Z,60.00
2023-02-06T04:15:57.781Z,57.80
2023-02-06T04:18:26.135Z,55.40
2023-02-06T04:20:54.498Z,61.67
2023-02-06T04:23:23.381Z,53.10
2023-02-06T04:25:53.112Z,60.03
2023-02-06T04:28:21.521Z,60.20
2023-02-06T04:30:50.063Z,57.30
2023-02-06T04:33:18.573Z,55.50
2023-02-06T04:35:48.364Z,62.97
2023-02-06T04:38:16.849Z,54.43
2023-02-06T04:40:45.478Z,58.97
2023-02-06T04:43:15.280Z,61.50
2023-02-06T04:45:43.600Z,55.30
2023-02-06T04:48:11.988Z,57.80
2023-02-06T04:50:40.340Z,60.83
2023-02-06T04:53:08.714Z,55.60
2023-02-06T04:55:37.422Z,54.67
2023-02-06T04:58:05.939Z,55.90
2023-02-06T05:00:37.981Z,55.47
2023-02-06T05:03:07.192Z,59.93
2023-02-06T05:05:35.761Z,56.50
2023-02-06T05:08:04.156Z,63.00
2023-02-06T05:10:32.547Z,52.93
2023-02-06T05:13:02.068Z,61.17
2023-02-06T05:15:30.420Z,54.40
2023-02-06T05:18:00.172Z,57.13
2023-02-06T05:20:28.913Z,59.80
2023-02-06T05:22:57.469Z,52.77
2023-02-06T05:25:26.919Z,46.93
2023-02-06T05:27:57.500Z,54.03
2023-02-06T05:30:26.404Z,55.27
2023-02-06T05:32:54.827Z,60.07
2023-02-06T05:35:25.196Z,57.60
2023-02-06T05:37:53.715Z,51.97
2023-02-06T05:40:22.371Z,49.97
2023-02-06T05:42:51.310Z,51.33
2023-02-06T05:45:19.914Z,60.07
2023-02-06T05:47:48.238Z,56.40
2023-02-06T05:50:17.078Z,56.27
2023-02-06T05:52:46.887Z,60.77
2023-02-06T05:55:17.050Z,56.43
2023-02-06T05:57:45.488Z,66.77
2023-02-06T06:00:15.628Z,57.90
2023-02-06T06:02:43.920Z,68.17
2023-02-06T06:05:12.663Z,68.27
2023-02-06T06:07:41.001Z,69.30
2023-02-06T06:10:11.161Z,68.37
2023-02-06T06:12:39.532Z,80.43
2023-02-06T06:15:09.427Z,82.80
2023-02-06T06:17:37.820Z,85.17
2023-02-06T06:20:07.282Z,92.20
2023-02-06T06:22:35.657Z,102.27
2023-02-06T06:25:05.147Z,95.87
2023-02-06T06:27:36.835Z,90.67
2023-02-06T06:30:05.886Z,106.93
2023-02-06T06:32:34.353Z,86.40
2023-02-06T06:35:02.725Z,96.23
2023-02-06T06:37:31.446Z,84.20
2023-02-06T06:39:59.857Z,81.40
2023-02-06T06:42:28.267Z,73.83
2023-02-06T06:44:58.760Z,70.30
2023-02-06T06:47:27.164Z,67.37
2023-02-06T06:49:55.604Z,61.07
2023-02-06T06:52:25.652Z,55.23
2023-02-06T06:54:54.760Z,63.80
2023-02-06T06:57:23.920Z,58.90
2023-02-06T06:59:52.524Z,55.63
2023-02-06T07:02:22.263Z,53.07
2023-02-06T07:04:50.675Z,51.33
2023-02-06T07:07:19.047Z,50.43
2023-02-06T07:09:47.958Z,51.00
2023-02-06T07:12:16.384Z,50.70
2023-02-06T07:14:44.746Z,53.63
2023-02-06T07:17:13.121Z,54.33
2023-02-06T07:19:42.952Z,52.63
2023-02-06T07:22:11.307Z,46.73
2023-02-06T07:24:39.827Z,50.00
2023-02-06T07:27:08.502Z,53.23
2023-02-06T07:29:38.590Z,46.17
2023-02-06T07:32:08.014Z,48.87
2023-02-06T07:34:37.848Z,45.97
2023-02-06T07:37:07.892Z,42.37
2023-02-06T07:39:36.264Z,39.03
2023-02-06T07:42:05.380Z,39.87
2023-02-06T07:44:33.926Z,45.97
2023-02-06T07:47:02.277Z,47.07
2023-02-06T07:49:30.743Z,40.83
2023-02-06T07:51:59.081Z,47.03
2023-02-06T07:54:29.139Z,47.57
2023-02-06T07:56:57.776Z,45.77
2023-02-06T07:59:26.444Z,39.90
2023-02-06T08:01:55.083Z,43.63
2023-02-06T08:04:23.437Z,49.00
2023-02-06T08:06:51.882Z,42.43
2023-02-06T08:09:20.296Z,46.50
2023-02-06T08:11:49.984Z,52.75
2023-02-06T08:14:18.298Z,53.97
2023-02-06T08:16:46.905Z,50.13
2023-02-06T08:19:15.284Z,46.10
2023-02-06T08:21:43.946Z,48.90
2023-02-06T08:24:14.304Z,51.83
2023-02-06T08:26:43.853Z,42.67
2023-02-06T08:29:15.415Z,43.83
2023-02-06T08:31:44.607Z,40.37
2023-02-06T08:34:15.359Z,45.90
2023-02-06T08:36:43.986Z,39.10
2023-02-06T08:39:15.234Z,44.27
2023-02-06T08:41:45.065Z,41.60
2023-02-06T08:44:18.640Z,46.97
2023-02-06T08:46:52.273Z,48.17
2023-02-06T08:49:26.935Z,41.67
2023-02-06T08:51:55.773Z,44.93
2023-02-06T08:54:25.428Z,43.93
2023-02-06T08:56:56.758Z,42.20
2023-02-06T08:59:29.358Z,40.73
2023-02-06T09:02:00.450Z,40.10
2023-02-06T09:04:33.788Z,38.73
2023-02-06T09:07:02.213Z,37.20
2023-02-06T09:09:30.602Z,38.33
2023-02-06T09:12:03.303Z,37.53
2023-02-06T09:14:35.558Z,36.83
2023-02-06T09:17:04.406Z,34.77
2023-02-06T09:19:32.862Z,34.63
2023-02-06T09:22:01.229Z,34.40
2023-02-06T09:24:30.495Z,31.57
2023-02-06T09:27:00.423Z,34.47
2023-02-06T09:29:31.776Z,37.22
2023-02-06T09:32:02.498Z,33.65
2023-02-06T09:34:31.031Z,29.42
2023-02-06T09:37:02.174Z,32.15
2023-02-06T09:39:31.152Z,33.75
2023-02-06T09:42:06.430Z,31.27
2023-02-06T09:44:38.254Z,30.48
2023-02-06T09:47:23.764Z,31.95
2023-02-06T09:49:56.010Z,31.33
2023-02-06T09:52:42.998Z,32.38
2023-02-06T09:55:20.443Z,29.90
2023-02-06T09:57:58.318Z,31.13
2023-02-06T10:00:41.639Z,32.28
2023-02-06T10:03:30.937Z,34.53
2023-02-06T10:06:13.863Z,29.85
2023-02-06T10:08:49.885Z,27.05
2023-02-06T10:11:29.558Z,30.05
2023-02-06T10:14:01.512Z,30.40
2023-02-06T10:16:42.762Z,28.48
2023-02-06T10:19:20.267Z,30.25
2023-02-06T10:21:56.633Z,31.08
2023-02-06T10:24:38.517Z,28.67
2023-02-06T10:27:13.565Z,28.90
2023-02-06T10:29:46.274Z,26.90
2023-02-06T10:32:28.824Z,30.92
2023-02-06T10:35:25.866Z,26.73
2023-02-06T10:38:26.761Z,29.33
2023-02-06T10:41:01.241Z,29.27
2023-02-06T10:43:41.828Z,28.80
2023-02-06T10:46:43.466Z,27.27
2023-02-06T10:49:24.954Z,26.20
2023-02-06T10:51:59.320Z,33.63
2023-02-06T10:54:33.080Z,26.85
2023-02-06T10:57:02.021Z,31.52
2023-02-06T10:59:34.605Z,30.50
2023-02-06T11:02:23.517Z,39.87
2023-02-06T11:05:00.103Z,39.03
2023-02-06T11:07:34.317Z,36.67
2023-02-06T11:10:02.670Z,43.17
2023-02-06T11:12:36.806Z,42.20
2023-02-06T11:15:16.623Z,39.87
2023-02-06T11:17:47.128Z,49.93
2023-02-06T11:20:22.034Z,41.73
2023-02-06T11:22:53.748Z,43.83
2023-02-06T11:25:28.691Z,40.03
2023-02-06T11:27:59.167Z,43.83
2023-02-06T11:30:34.880Z,39.43
2023-02-06T11:33:08.230Z,41.93
2023-02-06T11:35:41.543Z,39.47
2023-02-06T11:38:17.956Z,42.37
2023-02-06T11:40:58.143Z,40.10
2023-02-06T11:43:28.993Z,46.13
2023-02-06T11:46:15.680Z,43.13
2023-02-06T11:48:46.076Z,39.87
2023-02-06T11:51:16.967Z,40.03
2023-02-06T11:54:01.223Z,44.47
2023-02-06T11:56:31.396Z,38.07
2023-02-06T11:59:07.360Z,43.03
2023-02-06T12:01:44.403Z,50.87
2023-02-06T12:04:24.041Z,46.13
2023-02-06T12:07:00.004Z,42.43
2023-02-06T12:09:30.065Z,43.77
2023-02-06T12:12:06.166Z,40.43
2023-02-06T12:14:41.282Z,44.37
2023-02-06T12:17:25.059Z,41.17
2023-02-06T12:20:04.016Z,47.37
2023-02-06T12:22:40.542Z,45.00
2023-02-06T12:25:25.980Z,43.23
2023-02-06T12:27:58.042Z,41.37
2023-02-06T12:30:37.743Z,40.43
2023-02-06T12:33:15.660Z,43.60
2023-02-06T12:35:49.834Z,40.30
2023-02-06T12:38:39.098Z,44.50
2023-02-06T12:41:27.951Z,43.93
2023-02-06T12:44:02.052Z,45.70
2023-02-06T12:46:30.893Z,45.17
2023-02-06T12:49:08.805Z,47.50
2023-02-06T12:51:43.326Z,42.90
2023-02-06T12:54:17.962Z,42.67
2023-02-06T12:56:52.157Z,43.80
2023-02-06T13:00:02.151Z,44.17
2023-02-06T13:03:02.943Z,36.80
2023-02-06T13:05:36.809Z,39.70
2023-02-06T13:08:10.905Z,40.87
2023-02-06T13:10:39.894Z,38.43
2023-02-06T13:13:28.244Z,42.57
2023-02-06T13:16:00.506Z,38.10
2023-02-06T13:18:54.719Z,39.73
2023-02-06T13:21:29.526Z,44.23
2023-02-06T13:24:20.782Z,41.47
2023-02-06T13:27:14.794Z,43.40
2023-02-06T13:29:46.485Z,38.10
2023-02-06T13:32:45.393Z,43.07
2023-02-06T13:35:26.546Z,49.13
2023-02-06T13:38:37.658Z,44.90
2023-02-06T13:41:37.244Z,47.37
2023-02-06T13:44:16.863Z,44.37
2023-02-06T13:47:28.156Z,54.10
2023-02-06T13:50:45.076Z,47.30
2023-02-06T13:53:44.268Z,57.07
2023-02-06T13:56:39.489Z,57.33
2023-02-06T13:59:16.789Z,68.20
2023-02-06T14:01:45.352Z,55.63
2023-02-06T14:04:24.886Z,61.40
2023-02-06T14:07:45.302Z,65.97
2023-02-06T14:11:17.572Z,62.10
2023-02-06T14:14:05.556Z,63.23
2023-02-06T14:16:49.548Z,64.50
2023-02-06T14:19:32.684Z,69.10
2023-02-06T14:22:11.334Z,61.30
2023-02-06T14:25:05.422Z,64.10
2023-02-06T14:27:48.380Z,61.83
2023-02-06T14:30:30.872Z,67.23
2023-02-06T14:33:21.855Z,65.27
2023-02-06T14:36:14.807Z,68.63
2023-02-06T14:39:10.774Z,76.80
2023-02-06T14:41:40.435Z,71.27
2023-02-06T14:44:14.565Z,85.67
2023-02-06T14:46:44.610Z,86.53
2023-02-06T14:49:18.853Z,79.40
2023-02-06T14:51:52.719Z,66.40
2023-02-06T14:54:34.860Z,78.13
2023-02-06T14:57:08.338Z,74.33
2023-02-06T14:59:36.739Z,74.13
2023-02-06T15:02:15.576Z,71.47
2023-02-06T15:04:48.580Z,75.77
2023-02-06T15:07:28.438Z,71.90
2023-02-06T15:10:08.580Z,70.90
2023-02-06T15:12:37.890Z,73.93
2023-02-06T15:15:20.481Z,73.73
2023-02-06T15:18:02.097Z,75.43
2023-02-06T15:20:36.631Z,84.80
2023-02-06T15:23:18.711Z,79.03
2023-02-06T15:26:03.739Z,81.87
2023-02-06T15:28:35.620Z,81.10
2023-02-06T15:31:04.956Z,87.20
2023-02-06T15:33:35.975Z,75.43
2023-02-06T15:36:06.137Z,80.03
2023-02-06T15:38:37.371Z,84.93
2023-02-06T15:41:09.586Z,98.80
2023-02-06T15:43:38.260Z,90.67
2023-02-06T15:46:07.457Z,84.37
2023-02-06T15:48:40.993Z,83.70
2023-02-06T15:51:25.243Z,81.37
2023-02-06T15:54:10.461Z,89.90
2023-02-06T15:56:42.886Z,86.50
2023-02-06T15:59:20.521Z,94.70
2023-02-06T16:01:50.043Z,96.20
2023-02-06T16:04:24.228Z,97.77
2023-02-06T16:07:05.184Z,85.77
2023-02-06T16:09:42.246Z,99.07
2023-02-06T16:12:12.495Z,95.17
2023-02-06T16:14:45.269Z,90.17
2023-02-06T16:17:31.516Z,96.03
2023-02-06T16:20:02.728Z,98.17
2023-02-06T16:22:34.185Z,92.00
2023-02-06T16:25:25.804Z,90.67
2023-02-06T16:27:54.751Z,90.93
2023-02-06T16:30:28.334Z,87.00
2023-02-06T16:32:58.935Z,85.20
2023-02-06T16:35:28.081Z,82.67
2023-02-06T16:37:57.124Z,90.93
2023-02-06T16:40:27.213Z,81.77
2023-02-06T16:42:55.890Z,82.37
2023-02-06T16:45:27.410Z,82.60
2023-02-06T16:47:56.464Z,79.80
2023-02-06T16:50:24.863Z,74.90
2023-02-06T16:52:58.057Z,74.93
2023-02-06T16:55:28.930Z,79.13
2023-02-06T16:58:01.506Z,76.07
2023-02-06T17:00:32.563Z,77.90
2023-02-06T17:03:01.412Z,75.67
2023-02-06T17:05:31.623Z,80.50
2023-02-06T17:08:01.690Z,62.63
2023-02-06T17:10:32.502Z,78.20
2023-02-06T17:13:00.853Z,76.20
2023-02-06T17:15:29.877Z,79.93
2023-02-06T17:17:58.336Z,76.07
2023-02-06T17:20:37.412Z,71.03
2023-02-06T17:23:06.876Z,84.20
2023-02-06T17:25:36.919Z,75.53
2023-02-06T17:28:07.570Z,61.53
2023-02-06T17:30:38.160Z,70.13
2023-02-06T17:33:07.633Z,70.43
2023-02-06T17:35:37.836Z,76.23
2023-02-06T17:38:06.739Z,74.57
2023-02-06T17:40:40.174Z,78.93
2023-02-06T17:43:09.005Z,75.63
2023-02-06T17:45:39.920Z,82.30
2023-02-06T17:48:09.030Z,78.70
2023-02-06T17:50:39.058Z,77.63
2023-02-06T17:53:10.343Z,79.73
2023-02-06T17:55:40.110Z,74.73
2023-02-06T17:58:08.670Z,81.50
2023-02-06T18:00:37.448Z,78.60
2023-02-06T18:03:06.240Z,76.23
2023-02-06T18:05:35.004Z,67.83
2023-02-06T18:08:03.536Z,88.60
2023-02-06T18:10:31.933Z,77.37
2023-02-06T18:13:01.719Z,83.20
2023-02-06T18:15:31.850Z,75.97
2023-02-06T18:18:00.323Z,81.83
2023-02-06T18:20:28.852Z,75.60
2023-02-06T18:22:57.307Z,84.30
2023-02-06T18:25:25.642Z,70.03
2023-02-06T18:27:54.230Z,72.37
2023-02-06T18:30:24.428Z,75.57
2023-02-06T18:32:52.838Z,81.63
2023-02-06T18:35:21.451Z,82.27
2023-02-06T18:37:50.236Z,83.10
2023-02-06T18:40:19.245Z,78.00
2023-02-06T18:42:54.130Z,76.50
2023-02-06T18:45:31.212Z,82.77
2023-02-06T18:47:59.760Z,77.03
2023-02-06T18:50:28.473Z,75.10
2023-02-06T18:52:56.913Z,77.53
2023-02-06T18:55:26.020Z,74.23
2023-02-06T18:57:55.796Z,71.03
2023-02-06T19:00:25.721Z,67.57
2023-02-06T19:02:54.260Z,66.87
2023-02-06T19:05:22.702Z,68.83
2023-02-06T19:07:52.592Z,70.83
2023-02-06T19:10:22.405Z,60.77
2023-02-06T19:12:50.845Z,59.40
2023-02-06T19:15:19.690Z,65.13
2023-02-06T19:17:50.526Z,61.63
2023-02-06T19:20:19.434Z,63.70
2023-02-06T19:22:47.918Z,57.57
2023-02-06T19:25:16.305Z,63.70
2023-02-06T19:27:44.736Z,58.07
2023-02-06T19:30:14.281Z,62.23
2023-02-06T19:32:45.539Z,61.87
2023-02-06T19:35:15.589Z,55.87
2023-02-06T19:37:43.917Z,55.97
2023-02-06T19:40:12.915Z,56.70
2023-02-06T19:42:41.572Z,55.80
2023-02-06T19:45:10.113Z,55.53
2023-02-06T19:47:38.632Z,59.67
2023-02-06T19:50:08.208Z,57.63
2023-02-06T19:52:37.954Z,53.27
2023-02-06T19:55:06.897Z,56.73
2023-02-06T19:57:35.360Z,52.97
2023-02-06T20:00:04.707Z,54.20
2023-02-06T20:02:33.117Z,56.80
2023-02-06T20:05:02.652Z,53.27
2023-02-06T20:07:31.913Z,50.63
2023-02-06T20:10:01.719Z,54.37
2023-02-06T20:12:30.520Z,55.77
2023-02-06T20:15:01.659Z,46.50
2023-02-06T20:17:30.233Z,59.03
2023-02-06T20:20:00.828Z,56.07
2023-02-06T20:22:30.080Z,52.07
2023-02-06T20:24:58.568Z,55.63
2023-02-06T20:27:28.869Z,52.67
2023-02-06T20:29:57.345Z,56.40
2023-02-06T20:32:25.819Z,54.00
2023-02-06T20:34:54.199Z,54.07
2023-02-06T20:37:22.555Z,52.80
2023-02-06T20:39:50.944Z,48.53
2023-02-06T20:42:22.362Z,55.80
2023-02-06T20:44:52.690Z,47.50
2023-02-06T20:47:21.002Z,59.43
2023-02-06T20:49:49.442Z,53.90
2023-02-06T20:52:19.172Z,54.30
2023-02-06T20:54:47.610Z,53.57
2023-02-06T20:57:16.345Z,52.07
2023-02-06T20:59:44.710Z,55.43
2023-02-06T21:02:17.099Z,48.03
2023-02-06T21:04:45.514Z,49.80
2023-02-06T21:07:14.019Z,56.57
2023-02-06T21:09:42.355Z,56.03
2023-02-06T21:12:10.701Z,61.87
2023-02-06T21:14:39.109Z,59.33
2023-02-06T21:17:07.461Z,61.07
2023-02-06T21:19:37.360Z,53.07
2023-02-06T21:22:05.853Z,53.07
2023-02-06T21:24:34.272Z,57.30
2023-02-06T21:27:02.776Z,57.47
2023-02-06T21:29:31.240Z,57.97
2023-02-06T21:32:12.564Z,57.70
2023-02-06T21:34:44.067Z,53.43
2023-02-06T21:37:12.571Z,56.07
2023-02-06T21:39:41.599Z,60.40
2023-02-06T21:42:11.469Z,60.97
2023-02-06T21:44:39.986Z,54.17
2023-02-06T21:47:09.929Z,58.73
2023-02-06T21:49:38.492Z,53.97
2023-02-06T21:52:08.296Z,63.30
2023-02-06T21:54:36.803Z,81.20
2023-02-06T21:57:05.346Z,58.93
2023-02-06T21:59:34.282Z,57.90
2023-02-06T22:02:02.700Z,53.23
2023-02-06T22:04:31.294Z,55.77
2023-02-06T22:06:59.798Z,58.30
2023-02-06T22:09:29.585Z,61.50
2023-02-06T22:11:58.400Z,59.40
2023-02-06T22:14:27.289Z,59.07
2023-02-06T22:16:55.734Z,63.07
2023-02-06T22:19:24.110Z,59.80
2023-02-06T22:21:52.538Z,62.60
2023-02-06T22:24:21.438Z,56.87
2023-02-06T22:26:51.749Z,61.50
2023-02-06T22:29:20.291Z,62.80
2023-02-06T22:31:49.328Z,63.80
2023-02-06T22:34:20.021Z,63.63
2023-02-06T22:36:51.135Z,65.47
2023-02-06T22:39:19.798Z,63.07
2023-02-06T22:41:48.409Z,60.13
2023-02-06T22:44:20.798Z,58.30
2023-02-06T22:46:51.461Z,58.07
2023-02-06T22:49:21.676Z,64.27
2023-02-06T22:51:50.096Z,69.13
2023-02-06T22:54:19.515Z,63.70
2023-02-06T22:56:48.050Z,61.20
2023-02-06T22:59:21.164Z,62.63
2023-02-06T23:01:52.252Z,61.53
2023-02-06T23:04:23.376Z,61.20
2023-02-06T23:06:52.930Z,68.97
2023-02-06T23:09:23.966Z,65.93
2023-02-06T23:11:53.388Z,65.47
2023-02-06T23:14:23.189Z,70.30
2023-02-06T23:16:52.526Z,62.93
2023-02-06T23:19:22.055Z,64.03
2023-02-06T23:21:52.297Z,73.20
2023-02-06T23:24:21.441Z,62.50
2023-02-06T23:26:53.297Z,61.77
2023-02-06T23:29:24.337Z,63.37
2023-02-06T23:31:53.027Z,62.17
2023-02-06T23:34:24.255Z,56.97
2023-02-06T23:36:53.484Z,64.40
2023-02-06T23:39:21.954Z,62.90
2023-02-06T23:41:50.724Z,62.47
2023-02-06T23:44:19.225Z,68.17
2023-02-06T23:46:49.150Z,67.33
2023-02-06T23:49:17.649Z,65.27
2023-02-06T23:51:46.075Z,68.40
2023-02-06T23:54:14.496Z,65.43
2023-02-06T23:56:43.263Z,66.27
2023-02-06T23:59:12.994Z,69.10
